createdAt,value
2022-10-05T00:01:31.944Z,101778.94
2022-10-05T00:04:16.197Z,101726.88
2022-10-05T00:06:51.983Z,101771.09
2022-10-05T00:09:22.320Z,101745.16
2022-10-05T00:11:52.086Z,101783.41
2022-10-05T00:14:26.926Z,101757.19
2022-10-05T00:16:57.149Z,101725.38
2022-10-05T00:19:38.859Z,101783.66
2022-10-05T00:22:10.379Z,101784.75
2022-10-05T00:24:38.948Z,101714.56
2022-10-05T00:27:21.377Z,101704.47
2022-10-05T00:29:52.266Z,101756.88
2022-10-05T00:32:20.954Z,101784.94
2022-10-05T00:34:49.932Z,101786.84
2022-10-05T00:37:19.137Z,101780.06
2022-10-05T00:39:47.924Z,101768.94
2022-10-05T00:42:41.123Z,101787.44
2022-10-05T00:45:32.669Z,101786.88
2022-10-05T00:48:33.395Z,101799.38
2022-10-05T00:51:16.542Z,101796.84
2022-10-05T00:53:54.659Z,101776.22
2022-10-05T00:56:50.067Z,101789.44
2022-10-05T00:59:37.732Z,101811.50
2022-10-05T01:02:24.839Z,101810.69
2022-10-05T01:05:04.160Z,101815.16
2022-10-05T01:08:07.736Z,101812.59
2022-10-05T01:10:58.089Z,101810.94
2022-10-05T01:13:59.193Z,101802.22
2022-10-05T01:16:58.958Z,101767.44
2022-10-05T01:19:39.869Z,101817.13
2022-10-05T01:22:24.617Z,101819.78
2022-10-05T01:24:56.400Z,101825.09
2022-10-05T01:27:50.352Z,101826.00
2022-10-05T01:30:22.350Z,101796.28
2022-10-05T01:33:13.334Z,101808.56
2022-10-05T01:36:15.898Z,101770.28
2022-10-05T01:39:03.483Z,101829.56
2022-10-05T01:42:22.899Z,101824.34
2022-10-05T01:45:12.755Z,101832.22
2022-10-05T01:47:52.658Z,101806.97
2022-10-05T01:50:26.536Z,101799.09
2022-10-05T01:53:15.768Z,101801.72
2022-10-05T01:55:55.888Z,101824.31
2022-10-05T01:58:51.138Z,101821.66
2022-10-05T02:01:28.314Z,101826.91
2022-10-05T02:04:56.520Z,101835.66
2022-10-05T02:07:29.662Z,101822.59
2022-10-05T02:10:23.197Z,101822.53
2022-10-05T02:13:15.331Z,101812.03
2022-10-05T02:15:53.985Z,101826.78
2022-10-05T02:18:28.128Z,101830.13
2022-10-05T02:20:59.422Z,101832.69
2022-10-05T02:23:34.613Z,101810.81
2022-10-05T02:26:05.607Z,101823.00
2022-10-05T02:28:41.278Z,101840.44
2022-10-05T02:31:44.103Z,101846.53
2022-10-05T02:34:22.207Z,101850.88
2022-10-05T02:37:08.581Z,101842.97
2022-10-05T02:40:00.043Z,101843.00
2022-10-05T02:42:37.338Z,101862.94
2022-10-05T02:45:28.759Z,101855.88
2022-10-05T02:48:00.201Z,101852.19
2022-10-05T02:50:47.689Z,101861.81
2022-10-05T02:53:27.399Z,101849.59
2022-10-05T02:56:11.762Z,101850.38
2022-10-05T02:58:51.784Z,101873.84
2022-10-05T03:01:51.770Z,101871.94
2022-10-05T03:04:23.765Z,101868.34
2022-10-05T03:07:04.243Z,101869.91
2022-10-05T03:09:48.759Z,101854.59
2022-10-05T03:12:29.341Z,101882.78
2022-10-05T03:15:24.122Z,101880.69
2022-10-05T03:17:55.448Z,101893.56
2022-10-05T03:20:52.688Z,101858.22
2022-10-05T03:24:00.160Z,101867.91
2022-10-05T03:26:50.823Z,101865.69
2022-10-05T03:29:43.835Z,101868.00
2022-10-05T03:32:27.746Z,101874.69
2022-10-05T03:35:19.096Z,101862.75
2022-10-05T03:38:09.423Z,101862.28
2022-10-05T03:40:48.055Z,101861.16
2022-10-05T03:43:45.609Z,101865.91
2022-10-05T03:46:33.645Z,101853.63
2022-10-05T03:49:21.153Z,101870.06
2022-10-05T03:52:15.969Z,101858.63
2022-10-05T03:54:53.744Z,101817.91
2022-10-05T03:57:29.502Z,101857.09
2022-10-05T04:00:15.591Z,101831.06
2022-10-05T04:03:10.705Z,101860.66
2022-10-05T04:05:51.119Z,101841.22
2022-10-05T04:08:43.042Z,101831.38
2022-10-05T04:11:45.405Z,101852.75
2022-10-05T04:14:29.487Z,101839.41
2022-10-05T04:17:06.882Z,101846.13
2022-10-05T04:20:20.794Z,101853.09
2022-10-05T04:23:15.733Z,101850.22
2022-10-05T04:25:52.750Z,101820.41
2022-10-05T04:28:33.797Z,101838.44
2022-10-05T04:31:12.725Z,101846.00
2022-10-05T04:33:44.626Z,101830.03
2022-10-05T04:36:37.266Z,101805.34
2022-10-05T04:39:12.339Z,101841.53
2022-10-05T04:41:56.918Z,101820.25
2022-10-05T04:44:46.741Z,101833.97
2022-10-05T04:47:57.376Z,101841.59
2022-10-05T04:51:09.876Z,101838.44
2022-10-05T04:53:55.509Z,101815.28
2022-10-05T04:56:35.722Z,101807.78
2022-10-05T04:59:30.093Z,101836.03
2022-10-05T05:02:14.637Z,101820.63
2022-10-05T05:05:20.572Z,101833.88
2022-10-05T05:08:01.601Z,101819.06
2022-10-05T05:10:48.512Z,101823.00
2022-10-05T05:13:51.198Z,101824.31
2022-10-05T05:16:35.718Z,101827.94
2022-10-05T05:19:28.848Z,101822.28
2022-10-05T05:22:26.838Z,101828.56
2022-10-05T05:25:18.030Z,101829.56
2022-10-05T05:27:59.239Z,101828.88
2022-10-05T05:31:03.799Z,101797.09
2022-10-05T05:33:47.503Z,101822.19
2022-10-05T05:37:03.143Z,101805.34
2022-10-05T05:39:40.131Z,101808.97
2022-10-05T05:42:30.496Z,101797.91
2022-10-05T05:45:05.374Z,101810.78
2022-10-05T05:47:38.390Z,101795.16
2022-10-05T05:50:25.036Z,101804.97
2022-10-05T05:53:04.357Z,101777.88
2022-10-05T05:55:42.125Z,101777.13
2022-10-05T05:58:47.659Z,101776.44
2022-10-05T06:01:53.639Z,101775.56
2022-10-05T06:04:28.587Z,101795.00
2022-10-05T06:07:02.119Z,101778.03
2022-10-05T06:09:41.340Z,101776.28
2022-10-05T06:12:33.332Z,101776.34
2022-10-05T06:15:13.272Z,101775.56
2022-10-05T06:17:53.491Z,101780.91
2022-10-05T06:20:36.544Z,101777.53
2022-10-05T06:23:15.096Z,101786.09
2022-10-05T06:26:16.509Z,101773.34
2022-10-05T06:28:52.894Z,101782.66
2022-10-05T06:31:57.884Z,101781.84
2022-10-05T06:34:49.258Z,101774.91
2022-10-05T06:37:39.696Z,101780.88
2022-10-05T06:40:28.643Z,101782.03
2022-10-05T06:43:19.378Z,101778.91
2022-10-05T06:46:24.338Z,101756.63
2022-10-05T06:49:21.407Z,101761.47
2022-10-05T06:52:39.891Z,101774.63
2022-10-05T06:55:27.270Z,101770.72
2022-10-05T06:58:08.627Z,101770.13
2022-10-05T07:00:57.167Z,101766.50
2022-10-05T07:03:56.932Z,101765.81
2022-10-05T07:07:15.423Z,101758.88
2022-10-05T07:09:53.857Z,101756.66
2022-10-05T07:12:43.661Z,101759.69
2022-10-05T07:15:37.734Z,101752.41
2022-10-05T07:18:28.416Z,101729.00
2022-10-05T07:21:18.321Z,101743.94
2022-10-05T07:24:09.287Z,101751.38
2022-10-05T07:26:46.475Z,101738.41
2022-10-05T07:29:30.170Z,101741.88
2022-10-05T07:32:23.509Z,101739.19
2022-10-05T07:35:35.259Z,101721.22
2022-10-05T07:38:24.021Z,101716.59
2022-10-05T07:40:59.980Z,101731.38
2022-10-05T07:44:02.022Z,101740.41
2022-10-05T07:46:58.875Z,101737.06
2022-10-05T07:49:31.732Z,101738.38
2022-10-05T07:52:05.808Z,101713.84
2022-10-05T07:55:05.510Z,101732.56
2022-10-05T07:57:53.863Z,101729.25
2022-10-05T08:00:25.940Z,101733.97
2022-10-05T08:03:07.128Z,101726.00
2022-10-05T08:05:43.775Z,101734.63
2022-10-05T08:08:14.318Z,101727.53
2022-10-05T08:11:12.582Z,101689.34
2022-10-05T08:13:55.411Z,101721.72
2022-10-05T08:16:31.705Z,101712.56
2022-10-05T08:19:26.032Z,101679.03
2022-10-05T08:22:05.163Z,101720.75
2022-10-05T08:25:02.927Z,101733.34
2022-10-05T08:27:40.691Z,101733.56
2022-10-05T08:30:15.092Z,101723.56
2022-10-05T08:33:21.476Z,101728.81
2022-10-05T08:36:11.361Z,101696.97
2022-10-05T08:38:41.456Z,101724.75
2022-10-05T08:42:06.025Z,101735.66
2022-10-05T08:44:59.238Z,101722.06
2022-10-05T08:47:28.920Z,101712.91
2022-10-05T08:50:26.703Z,101727.13
2022-10-05T08:53:13.971Z,101715.50
2022-10-05T08:56:21.494Z,101724.31
2022-10-05T08:59:06.805Z,101716.88
2022-10-05T09:01:35.419Z,101714.59
2022-10-05T09:04:22.011Z,101716.56
2022-10-05T09:07:24.354Z,101710.94
2022-10-05T09:10:13.819Z,101693.34
2022-10-05T09:12:51.375Z,101707.38
2022-10-05T09:15:38.100Z,101688.25
2022-10-05T09:18:22.303Z,101701.53
2022-10-05T09:21:03.466Z,101710.69
2022-10-05T09:23:37.973Z,101715.94
2022-10-05T09:26:44.838Z,101703.50
2022-10-05T09:29:34.856Z,101711.44
2022-10-05T09:32:21.004Z,101707.66
2022-10-05T09:35:01.811Z,101696.50
2022-10-05T09:37:51.605Z,101709.72
2022-10-05T09:40:36.941Z,101707.06
2022-10-05T09:43:29.195Z,101712.56
2022-10-05T09:46:12.990Z,101709.00
2022-10-05T09:49:00.385Z,101705.81
2022-10-05T09:51:50.491Z,101715.13
2022-10-05T09:54:37.731Z,101685.06
2022-10-05T09:57:30.198Z,101719.47
2022-10-05T10:03:06.171Z,101711.19
2022-10-05T10:05:47.716Z,101714.84
2022-10-05T10:08:37.987Z,101708.72
2022-10-05T10:11:27.277Z,101727.09
2022-10-05T10:14:14.150Z,101717.41
2022-10-05T10:16:51.356Z,101709.34
2022-10-05T10:19:28.964Z,101708.28
2022-10-05T10:22:14.803Z,101703.00
2022-10-05T10:25:09.726Z,101708.28
2022-10-05T10:28:03.309Z,101716.97
2022-10-05T10:30:47.066Z,101723.84
2022-10-05T10:33:47.300Z,101677.22
2022-10-05T10:36:24.540Z,101721.81
2022-10-05T10:39:21.700Z,101715.13
2022-10-05T10:42:01.709Z,101723.84
2022-10-05T10:45:08.978Z,101700.25
2022-10-05T10:47:47.717Z,101703.16
2022-10-05T10:51:06.568Z,101721.66
2022-10-05T10:53:58.166Z,101702.56
2022-10-05T10:57:06.804Z,101729.22
2022-10-05T10:59:53.827Z,101724.69
2022-10-05T11:02:30.461Z,101703.16
2022-10-05T11:05:32.001Z,101724.66
2022-10-05T11:08:37.538Z,101723.25
2022-10-05T11:11:30.335Z,101728.19
2022-10-05T11:14:17.359Z,101732.03
2022-10-05T11:17:19.133Z,101727.97
2022-10-05T11:20:32.581Z,101737.22
2022-10-05T11:23:16.408Z,101720.00
2022-10-05T11:26:11.270Z,101735.91
2022-10-05T11:28:42.873Z,101734.19
2022-10-05T11:31:50.245Z,101716.00
2022-10-05T11:34:57.130Z,101725.09
2022-10-05T11:37:46.306Z,101665.94
2022-10-05T11:40:45.879Z,101702.84
2022-10-05T11:43:44.926Z,101722.41
2022-10-05T11:46:25.944Z,101698.50
2022-10-05T11:49:03.413Z,101722.25
2022-10-05T11:51:50.720Z,101723.38
2022-10-05T11:54:32.538Z,101702.44
2022-10-05T11:57:10.298Z,101704.44
2022-10-05T12:00:00.087Z,101719.09
2022-10-05T12:02:43.585Z,101693.97
2022-10-05T12:05:28.106Z,101697.22
2022-10-05T12:08:15.535Z,101709.19
2022-10-05T12:10:58.924Z,101719.91
2022-10-05T12:14:07.631Z,101729.06
2022-10-05T12:16:56.752Z,101717.31
2022-10-05T12:19:32.415Z,101715.91
2022-10-05T12:22:16.140Z,101699.38
2022-10-05T12:24:47.830Z,101732.16
2022-10-05T12:27:23.925Z,101716.47
2022-10-05T12:30:20.956Z,101730.88
2022-10-05T12:33:02.055Z,101718.84
2022-10-05T12:35:47.876Z,101726.50
2022-10-05T12:38:47.357Z,101742.19
2022-10-05T12:41:16.083Z,101738.56
2022-10-05T12:44:07.792Z,101711.56
2022-10-05T12:46:42.293Z,101748.66
2022-10-05T12:49:14.233Z,101743.06
2022-10-05T12:52:00.886Z,101742.97
2022-10-05T12:54:56.165Z,101744.16
2022-10-05T12:57:45.902Z,101743.13
2022-10-05T13:00:22.937Z,101723.19
2022-10-05T13:03:13.536Z,101720.03
2022-10-05T13:05:48.193Z,101706.75
2022-10-05T13:08:33.313Z,101712.16
2022-10-05T13:11:04.745Z,101733.16
2022-10-05T13:13:36.067Z,101730.41
2022-10-05T13:16:21.307Z,101728.63
2022-10-05T13:19:08.199Z,101728.91
2022-10-05T13:22:13.316Z,101708.31
2022-10-05T13:25:09.313Z,101699.81
2022-10-05T13:27:43.438Z,101689.44
2022-10-05T13:30:18.927Z,101720.78
2022-10-05T13:33:16.067Z,101714.03
2022-10-05T13:36:14.615Z,101729.66
2022-10-05T13:38:43.472Z,101733.09
2022-10-05T13:41:18.828Z,101734.03
2022-10-05T13:43:59.573Z,101728.34
2022-10-05T13:46:52.988Z,101729.78
2022-10-05T13:52:51.163Z,101715.06
2022-10-05T13:55:47.038Z,101737.38
2022-10-05T13:58:30.543Z,101723.66
2022-10-05T14:01:23.794Z,101736.31
2022-10-05T14:04:11.465Z,101726.94
2022-10-05T14:06:40.187Z,101714.31
2022-10-05T14:09:33.990Z,101707.13
2022-10-05T14:12:05.062Z,101736.16
2022-10-05T14:14:48.346Z,101735.81
2022-10-05T14:17:39.847Z,101736.84
2022-10-05T14:20:31.807Z,101697.72
2022-10-05T14:23:12.060Z,101742.72
2022-10-05T14:25:55.695Z,101728.06
2022-10-05T14:28:33.481Z,101729.63
2022-10-05T14:31:13.116Z,101744.34
2022-10-05T14:33:42.286Z,101704.81
2022-10-05T14:36:25.025Z,101730.06
2022-10-05T14:39:01.147Z,101722.75
2022-10-05T14:41:35.243Z,101710.13
2022-10-05T14:44:06.740Z,101727.13
2022-10-05T14:46:36.746Z,101734.63
2022-10-05T14:49:27.215Z,101714.53
2022-10-05T14:51:57.167Z,101714.47
2022-10-05T14:54:34.389Z,101732.53
2022-10-05T14:57:25.865Z,101729.16
2022-10-05T15:00:09.263Z,101745.94
2022-10-05T15:02:45.741Z,101738.69
2022-10-05T15:05:17.314Z,101734.16
2022-10-05T15:07:50.046Z,101734.94
2022-10-05T15:10:37.267Z,101692.59
2022-10-05T15:13:29.152Z,101707.19
2022-10-05T15:16:20.389Z,101724.84
2022-10-05T15:18:52.394Z,101723.13
2022-10-05T15:21:52.993Z,101705.50
2022-10-05T15:24:26.075Z,101713.16
2022-10-05T15:27:01.237Z,101712.28
2022-10-05T15:29:47.403Z,101720.19
2022-10-05T15:32:42.336Z,101714.06
2022-10-05T15:35:25.838Z,101709.91
2022-10-05T15:38:23.773Z,101666.75
2022-10-05T15:41:21.022Z,101704.13
2022-10-05T15:43:52.410Z,101708.06
2022-10-05T15:46:36.362Z,101713.72
2022-10-05T15:49:13.595Z,101714.53
2022-10-05T15:51:42.332Z,101723.44
2022-10-05T15:54:45.084Z,101720.97
2022-10-05T15:57:51.342Z,101720.31
2022-10-05T16:00:24.184Z,101704.94
2022-10-05T16:02:55.566Z,101710.13
2022-10-05T16:05:59.870Z,101710.44
2022-10-05T16:09:02.124Z,101708.81
2022-10-05T16:11:44.722Z,101719.28
2022-10-05T16:14:38.882Z,101713.25
2022-10-05T16:17:07.638Z,101708.13
2022-10-05T16:19:57.175Z,101666.75
2022-10-05T16:23:05.511Z,101702.56
2022-10-05T16:26:16.055Z,101684.16
2022-10-05T16:29:08.661Z,101673.94
2022-10-05T16:32:07.713Z,101687.31
2022-10-05T16:35:09.551Z,101678.97
2022-10-05T16:38:01.288Z,101694.72
2022-10-05T16:40:57.278Z,101704.63
2022-10-05T16:43:45.663Z,101689.09
2022-10-05T16:46:42.236Z,101688.47
2022-10-05T16:49:20.075Z,101665.16
2022-10-05T16:51:59.763Z,101689.56
2022-10-05T16:54:47.850Z,101695.88
2022-10-05T16:57:25.201Z,101695.06
2022-10-05T17:00:05.658Z,101688.94
2022-10-05T17:02:46.773Z,101682.28
2022-10-05T17:05:56.139Z,101694.44
2022-10-05T17:08:37.465Z,101699.88
2022-10-05T17:11:17.147Z,101693.81
2022-10-05T17:14:17.977Z,101690.53
2022-10-05T17:16:55.373Z,101689.63
2022-10-05T17:19:34.762Z,101697.59
2022-10-05T17:22:31.502Z,101693.44
2022-10-05T17:25:09.232Z,101704.16
2022-10-05T17:27:57.997Z,101673.06
2022-10-05T17:30:54.612Z,101673.31
2022-10-05T17:33:25.522Z,101704.63
2022-10-05T17:36:09.001Z,101697.59
2022-10-05T17:38:50.520Z,101697.69
2022-10-05T17:41:30.860Z,101685.03
2022-10-05T17:44:19.962Z,101701.59
2022-10-05T17:46:49.450Z,101714.09
2022-10-05T17:49:40.503Z,101708.91
2022-10-05T17:52:55.995Z,101699.75
2022-10-05T17:55:37.104Z,101718.19
2022-10-05T17:58:26.700Z,101709.59
2022-10-05T18:01:07.713Z,101702.66
2022-10-05T18:03:41.759Z,101634.59
2022-10-05T18:06:32.612Z,101708.59
2022-10-05T18:09:13.682Z,101710.41
2022-10-05T18:11:45.202Z,101706.16
2022-10-05T18:14:27.883Z,101703.72
2022-10-05T18:17:13.221Z,101713.50
2022-10-05T18:19:42.241Z,101706.78
2022-10-05T18:22:28.743Z,101699.19
2022-10-05T18:25:36.622Z,101703.63
2022-10-05T18:28:24.193Z,101698.66
2022-10-05T18:31:11.528Z,101695.53
2022-10-05T18:34:18.682Z,101697.59
2022-10-05T18:37:01.531Z,101605.06
2022-10-05T18:40:06.409Z,101679.00
2022-10-05T18:42:50.700Z,101680.78
2022-10-05T18:45:37.994Z,101703.28
2022-10-05T18:48:40.116Z,101681.88
2022-10-05T18:51:39.720Z,101697.50
2022-10-05T18:54:30.724Z,101688.34
2022-10-05T18:57:03.561Z,101592.66
2022-10-05T18:59:54.276Z,101692.47
2022-10-05T19:02:39.397Z,101681.28
2022-10-05T19:08:36.518Z,101657.41
2022-10-05T19:11:23.900Z,101694.19
2022-10-05T19:14:31.579Z,101710.13
2022-10-05T19:17:03.181Z,101694.25
2022-10-05T19:19:46.989Z,101702.34
2022-10-05T19:22:42.825Z,101700.78
2022-10-05T19:25:40.281Z,101660.72
2022-10-05T19:28:14.063Z,101667.91
2022-10-05T19:30:53.582Z,101681.88
2022-10-05T19:33:42.130Z,101687.53
2022-10-05T19:36:32.745Z,101659.34
2022-10-05T19:39:29.412Z,101681.19
2022-10-05T19:42:18.388Z,101665.09
2022-10-05T19:45:03.373Z,101659.34
2022-10-05T19:47:43.608Z,101692.66
2022-10-05T19:50:23.803Z,101687.50
2022-10-05T19:53:04.764Z,101662.53
2022-10-05T19:55:42.270Z,101657.47
2022-10-05T19:58:26.047Z,101657.78
2022-10-05T20:00:56.182Z,101669.28
2022-10-05T20:03:28.429Z,101693.06
2022-10-05T20:06:04.802Z,101678.59
2022-10-05T20:08:42.650Z,101653.72
2022-10-05T20:11:23.063Z,101668.63
2022-10-05T20:13:55.633Z,101691.41
2022-10-05T20:16:45.914Z,101683.63
2022-10-05T20:19:50.482Z,101677.69
2022-10-05T20:22:35.772Z,101649.97
2022-10-05T20:25:29.340Z,101662.28
2022-10-05T20:27:59.192Z,101657.84
2022-10-05T20:30:29.702Z,101645.63
2022-10-05T20:33:02.321Z,101662.19
2022-10-05T20:35:34.341Z,101652.66
2022-10-05T20:38:03.062Z,101648.31
2022-10-05T20:40:31.933Z,101658.03
2022-10-05T20:43:00.450Z,101650.25
2022-10-05T20:45:29.166Z,101660.81
2022-10-05T20:47:57.712Z,101626.91
2022-10-05T20:50:28.334Z,101587.03
2022-10-05T20:52:58.283Z,101656.53
2022-10-05T20:55:32.046Z,101659.22
2022-10-05T20:58:01.064Z,101577.50
2022-10-05T21:00:49.533Z,101634.84
2022-10-05T21:03:19.359Z,101612.22
2022-10-05T21:05:47.891Z,101628.69
2022-10-05T21:08:16.606Z,101619.84
2022-10-05T21:10:45.234Z,101610.94
2022-10-05T21:13:13.858Z,101555.28
2022-10-05T21:15:43.403Z,101526.63
2022-10-05T21:18:12.141Z,101626.59
2022-10-05T21:20:40.722Z,101611.03
2022-10-05T21:23:09.120Z,101598.00
2022-10-05T21:25:37.904Z,101613.66
2022-10-05T21:28:07.252Z,101593.94
2022-10-05T21:30:35.962Z,101612.38
2022-10-05T21:33:04.346Z,101615.16
2022-10-05T21:35:33.234Z,101605.75
2022-10-05T21:38:01.700Z,101615.53
2022-10-05T21:40:30.310Z,101607.72
2022-10-05T21:42:58.949Z,101599.22
2022-10-05T21:45:29.577Z,101622.75
2022-10-05T21:47:58.749Z,101621.09
2022-10-05T21:50:27.660Z,101594.22
2022-10-05T21:52:56.143Z,101626.41
2022-10-05T21:55:24.671Z,101616.84
2022-10-05T21:57:53.300Z,101588.22
2022-10-05T22:00:21.865Z,101636.00
2022-10-05T22:02:50.480Z,101604.63
2022-10-05T22:05:19.042Z,101601.06
2022-10-05T22:07:47.541Z,101600.09
2022-10-05T22:10:16.047Z,101592.22
2022-10-05T22:12:47.144Z,101605.28
2022-10-05T22:15:16.184Z,101614.09
2022-10-05T22:17:46.672Z,101615.78
2022-10-05T22:20:16.281Z,101613.97
2022-10-05T22:22:44.821Z,101614.91
2022-10-05T22:25:13.581Z,101620.88
2022-10-05T22:27:43.775Z,101617.31
2022-10-05T22:30:15.646Z,101570.31
2022-10-05T22:32:45.021Z,101599.69
2022-10-05T22:35:13.723Z,101603.97
2022-10-05T22:37:42.421Z,101611.56
2022-10-05T22:40:12.408Z,101594.03
2022-10-05T22:42:41.487Z,101592.25
2022-10-05T22:45:10.462Z,101584.38
2022-10-05T22:47:38.824Z,101553.94
2022-10-05T22:50:08.024Z,101576.53
2022-10-05T22:52:36.733Z,101584.44
2022-10-05T22:55:05.961Z,101602.94
2022-10-05T22:57:41.703Z,101583.78
2022-10-05T23:00:11.850Z,101596.19
2022-10-05T23:02:42.428Z,101604.09
2022-10-05T23:05:14.102Z,101598.97
2022-10-05T23:07:45.252Z,101586.75
2022-10-05T23:10:16.917Z,101607.59
2022-10-05T23:12:46.004Z,101618.06
2022-10-05T23:15:14.609Z,101612.00
2022-10-05T23:17:42.971Z,101592.78
2022-10-05T23:20:11.468Z,101603.16
2022-10-05T23:22:40.478Z,101565.69
2022-10-05T23:25:09.637Z,101584.03
2022-10-05T23:27:39.740Z,101593.69
2022-10-05T23:30:10.664Z,101604.19
2022-10-05T23:32:41.806Z,101597.41
2022-10-05T23:35:12.620Z,101616.72
2022-10-05T23:37:43.483Z,101542.00
2022-10-05T23:40:14.457Z,101543.81
2022-10-05T23:42:43.184Z,101603.06
2022-10-05T23:45:12.840Z,101602.16
2022-10-05T23:47:41.991Z,101602.47
2022-10-05T23:50:10.942Z,101572.97
2022-10-05T23:52:39.397Z,101626.19
2022-10-05T23:55:08.558Z,101621.00
2022-10-05T23:57:37.307Z,101597.56
